sensor_id;sensor_type;location;lat;lon;timestamp;temperature;humidity
37310;DHT22;23195;47.744;7.358;2022-12-29T00:02:31;8.00;99.90
37310;DHT22;23195;47.744;7.358;2022-12-29T00:05:26;8.10;99.90
37310;DHT22;23195;47.744;7.358;2022-12-29T00:22:23;8.30;99.90
37310;DHT22;23195;47.744;7.358;2022-12-29T00:25:16;8.20;99.90
37310;DHT22;23195;47.744;7.358;2022-12-29T00:31:34;8.10;99.90
37310;DHT22;23195;47.744;7.358;2022-12-29T00:34:43;8.20;99.90
37310;DHT22;23195;47.744;7.358;2022-12-29T00:37:47;8.10;99.90
37310;DHT22;23195;47.744;7.358;2022-12-29T00:40:51;8.40;99.90
37310;DHT22;23195;47.744;7.358;2022-12-29T00:46:57;8.20;99.90
37310;DHT22;23195;47.744;7.358;2022-12-29T00:49:36;8.90;99.90
37310;DHT22;23195;47.744;7.358;2022-12-29T00:55:54;9.10;99.90
37310;DHT22;23195;47.744;7.358;2022-12-29T00:59:07;9.10;99.90
37310;DHT22;23195;47.744;7.358;2022-12-29T01:01:56;8.80;99.90
37310;DHT22;23195;47.744;7.358;2022-12-29T01:08:26;9.40;99.90
37310;DHT22;23195;47.744;7.358;2022-12-29T01:14:24;9.70;99.90
37310;DHT22;23195;47.744;7.358;2022-12-29T01:20:32;9.60;99.90
37310;DHT22;23195;47.744;7.358;2022-12-29T01:23:15;9.60;99.90
37310;DHT22;23195;47.744;7.358;2022-12-29T01:25:48;9.70;99.90
37310;DHT22;23195;47.744;7.358;2022-12-29T01:28:30;9.70;99.90
37310;DHT22;23195;47.744;7.358;2022-12-29T01:34:29;9.80;99.90
37310;DHT22;23195;47.744;7.358;2022-12-29T01:37:15;8.40;99.90
37310;DHT22;23195;47.744;7.358;2022-12-29T01:40:19;9.90;99.90
37310;DHT22;23195;47.744;7.358;2022-12-29T01:43:03;9.80;99.90
37310;DHT22;23195;47.744;7.358;2022-12-29T01:52:05;9.80;99.90
37310;DHT22;23195;47.744;7.358;2022-12-29T01:55:37;9.70;99.90
37310;DHT22;23195;47.744;7.358;2022-12-29T01:58:54;9.80;99.90
37310;DHT22;23195;47.744;7.358;2022-12-29T02:02:04;9.80;99.90
37310;DHT22;23195;47.744;7.358;2022-12-29T02:05:11;9.80;99.90
37310;DHT22;23195;47.744;7.358;2022-12-29T02:08:02;8.70;99.90
37310;DHT22;23195;47.744;7.358;2022-12-29T02:13:46;10.30;99.90
37310;DHT22;23195;47.744;7.358;2022-12-29T02:23:26;9.40;99.90
37310;DHT22;23195;47.744;7.358;2022-12-29T02:32:55;11.30;99.90
37310;DHT22;23195;47.744;7.358;2022-12-29T02:39:52;10.60;99.90
37310;DHT22;23195;47.744;7.358;2022-12-29T02:46:19;10.90;99.90
37310;DHT22;23195;47.744;7.358;2022-12-29T02:53:08;11.00;99.90
37310;DHT22;23195;47.744;7.358;2022-12-29T02:55:50;11.00;99.90
37310;DHT22;23195;47.744;7.358;2022-12-29T02:58:30;11.10;99.90
37310;DHT22;23195;47.744;7.358;2022-12-29T03:08:23;11.20;99.90
37310;DHT22;23195;47.744;7.358;2022-12-29T03:18:41;11.00;99.90
37310;DHT22;23195;47.744;7.358;2022-12-29T03:28:47;10.70;99.90
37310;DHT22;23195;47.744;7.358;2022-12-29T03:38:09;10.70;99.90
37310;DHT22;23195;47.744;7.358;2022-12-29T03:43:55;10.80;99.90
37310;DHT22;23195;47.744;7.358;2022-12-29T03:46:40;10.70;99.90
37310;DHT22;23195;47.744;7.358;2022-12-29T03:52:40;10.90;99.90
37310;DHT22;23195;47.744;7.358;2022-12-29T03:58:30;11.00;99.90
37310;DHT22;23195;47.744;7.358;2022-12-29T04:01:28;11.00;99.90
37310;DHT22;23195;47.744;7.358;2022-12-29T04:04:30;11.10;99.90
37310;DHT22;23195;47.744;7.358;2022-12-29T04:07:38;11.10;99.90
37310;DHT22;23195;47.744;7.358;2022-12-29T04:10:53;11.00;99.90
37310;DHT22;23195;47.744;7.358;2022-12-29T04:13:43;11.00;99.90
37310;DHT22;23195;47.744;7.358;2022-12-29T04:16:22;11.00;99.90
37310;DHT22;23195;47.744;7.358;2022-12-29T04:22:18;10.90;99.90
37310;DHT22;23195;47.744;7.358;2022-12-29T04:28:00;10.70;99.90
37310;DHT22;23195;47.744;7.358;2022-12-29T04:30:56;10.50;99.90
37310;DHT22;23195;47.744;7.358;2022-12-29T04:33:53;10.50;99.90
37310;DHT22;23195;47.744;7.358;2022-12-29T04:36:45;10.40;99.90
37310;DHT22;23195;47.744;7.358;2022-12-29T04:39:30;10.50;99.90
37310;DHT22;23195;47.744;7.358;2022-12-29T04:54:29;10.70;99.90
37310;DHT22;23195;47.744;7.358;2022-12-29T04:57:49;10.70;99.90
37310;DHT22;23195;47.744;7.358;2022-12-29T05:04:10;10.30;99.90
37310;DHT22;23195;47.744;7.358;2022-12-29T05:07:07;10.60;99.90
37310;DHT22;23195;47.744;7.358;2022-12-29T05:09:45;10.70;99.90
37310;DHT22;23195;47.744;7.358;2022-12-29T05:12:47;10.70;99.90
37310;DHT22;23195;47.744;7.358;2022-12-29T05:18:36;10.90;99.90
37310;DHT22;23195;47.744;7.358;2022-12-29T05:24:58;11.00;99.90
37310;DHT22;23195;47.744;7.358;2022-12-29T05:31:00;11.00;99.90
37310;DHT22;23195;47.744;7.358;2022-12-29T05:34:10;11.00;99.90
37310;DHT22;23195;47.744;7.358;2022-12-29T05:40:27;11.10;99.90
37310;DHT22;23195;47.744;7.358;2022-12-29T05:46:59;11.70;99.90
37310;DHT22;23195;47.744;7.358;2022-12-29T05:49:41;10.80;99.90
37310;DHT22;23195;47.744;7.358;2022-12-29T05:52:29;10.90;99.90
37310;DHT22;23195;47.744;7.358;2022-12-29T05:55:41;10.50;99.90
37310;DHT22;23195;47.744;7.358;2022-12-29T05:58:43;10.60;99.90
37310;DHT22;23195;47.744;7.358;2022-12-29T06:01:22;10.50;99.90
37310;DHT22;23195;47.744;7.358;2022-12-29T06:04:02;10.40;99.90
37310;DHT22;23195;47.744;7.358;2022-12-29T06:06:41;10.20;99.90
37310;DHT22;23195;47.744;7.358;2022-12-29T06:09:32;10.30;99.90
37310;DHT22;23195;47.744;7.358;2022-12-29T06:15:25;10.20;99.90
37310;DHT22;23195;47.744;7.358;2022-12-29T06:17:58;10.00;99.90
37310;DHT22;23195;47.744;7.358;2022-12-29T06:20:29;10.00;99.90
37310;DHT22;23195;47.744;7.358;2022-12-29T06:23:08;10.10;99.90
37310;DHT22;23195;47.744;7.358;2022-12-29T06:25:46;9.80;99.90
37310;DHT22;23195;47.744;7.358;2022-12-29T06:28:46;9.60;99.90
37310;DHT22;23195;47.744;7.358;2022-12-29T06:31:50;9.40;99.90
37310;DHT22;23195;47.744;7.358;2022-12-29T06:34:32;9.50;99.90
37310;DHT22;23195;47.744;7.358;2022-12-29T06:40:29;9.30;99.90
37310;DHT22;23195;47.744;7.358;2022-12-29T06:43:20;9.20;99.90
37310;DHT22;23195;47.744;7.358;2022-12-29T06:45:56;9.10;99.90
37310;DHT22;23195;47.744;7.358;2022-12-29T06:48:22;9.10;99.90
37310;DHT22;23195;47.744;7.358;2022-12-29T06:50:48;9.10;99.90
37310;DHT22;23195;47.744;7.358;2022-12-29T06:53:14;9.20;99.90
37310;DHT22;23195;47.744;7.358;2022-12-29T06:55:41;9.20;99.90
37310;DHT22;23195;47.744;7.358;2022-12-29T06:58:07;9.30;99.90
37310;DHT22;23195;47.744;7.358;2022-12-29T07:00:33;9.40;99.90
37310;DHT22;23195;47.744;7.358;2022-12-29T07:03:00;9.50;99.90
37310;DHT22;23195;47.744;7.358;2022-12-29T07:05:26;9.60;99.90
37310;DHT22;23195;47.744;7.358;2022-12-29T07:07:58;9.60;99.90
37310;DHT22;23195;47.744;7.358;2022-12-29T07:10:27;9.70;99.90
37310;DHT22;23195;47.744;7.358;2022-12-29T07:12:53;9.70;99.90
37310;DHT22;23195;47.744;7.358;2022-12-29T07:15:19;9.70;99.90
37310;DHT22;23195;47.744;7.358;2022-12-29T07:17:45;9.80;99.90
37310;DHT22;23195;47.744;7.358;2022-12-29T07:20:11;9.80;99.90
37310;DHT22;23195;47.744;7.358;2022-12-29T07:22:36;9.80;99.90
37310;DHT22;23195;47.744;7.358;2022-12-29T07:25:15;9.90;99.90
37310;DHT22;23195;47.744;7.358;2022-12-29T07:27:54;9.90;99.90
37310;DHT22;23195;47.744;7.358;2022-12-29T07:30:53;10.00;99.90
37310;DHT22;23195;47.744;7.358;2022-12-29T07:33:39;10.00;99.90
37310;DHT22;23195;47.744;7.358;2022-12-29T07:36:32;9.90;99.90
37310;DHT22;23195;47.744;7.358;2022-12-29T07:39:31;9.90;99.90
37310;DHT22;23195;47.744;7.358;2022-12-29T07:42:25;9.90;99.90
37310;DHT22;23195;47.744;7.358;2022-12-29T07:45:03;9.90;99.90
37310;DHT22;23195;47.744;7.358;2022-12-29T07:47:42;9.90;99.90
37310;DHT22;23195;47.744;7.358;2022-12-29T07:50:11;9.90;99.90
37310;DHT22;23195;47.744;7.358;2022-12-29T07:52:52;9.80;99.90
37310;DHT22;23195;47.744;7.358;2022-12-29T07:55:28;9.80;99.90
37310;DHT22;23195;47.744;7.358;2022-12-29T07:58:04;9.70;99.90
37310;DHT22;23195;47.744;7.358;2022-12-29T08:00:35;9.00;99.90
37310;DHT22;23195;47.744;7.358;2022-12-29T08:03:12;10.00;99.90
37310;DHT22;23195;47.744;7.358;2022-12-29T08:06:00;10.10;99.90
37310;DHT22;23195;47.744;7.358;2022-12-29T08:08:30;10.10;99.90
37310;DHT22;23195;47.744;7.358;2022-12-29T08:11:06;10.10;99.90
37310;DHT22;23195;47.744;7.358;2022-12-29T08:13:43;10.30;99.90
37310;DHT22;23195;47.744;7.358;2022-12-29T08:16:23;10.50;99.90
37310;DHT22;23195;47.744;7.358;2022-12-29T08:18:59;10.80;99.90
37310;DHT22;23195;47.744;7.358;2022-12-29T08:24:21;11.00;99.90
37310;DHT22;23195;47.744;7.358;2022-12-29T08:26:49;11.10;99.90
37310;DHT22;23195;47.744;7.358;2022-12-29T08:32:45;11.40;99.90
37310;DHT22;23195;47.744;7.358;2022-12-29T08:35:25;11.40;99.90
37310;DHT22;23195;47.744;7.358;2022-12-29T08:37:54;11.60;99.90
37310;DHT22;23195;47.744;7.358;2022-12-29T08:40:47;11.80;99.90
37310;DHT22;23195;47.744;7.358;2022-12-29T08:43:25;11.90;99.90
37310;DHT22;23195;47.744;7.358;2022-12-29T08:46:10;12.10;99.90
37310;DHT22;23195;47.744;7.358;2022-12-29T08:48:49;12.20;99.90
37310;DHT22;23195;47.744;7.358;2022-12-29T08:51:25;12.40;99.90
37310;DHT22;23195;47.744;7.358;2022-12-29T08:54:10;12.40;99.90
37310;DHT22;23195;47.744;7.358;2022-12-29T08:57:02;11.90;99.90
37310;DHT22;23195;47.744;7.358;2022-12-29T08:59:40;12.40;99.90
37310;DHT22;23195;47.744;7.358;2022-12-29T09:02:19;12.50;99.90
37310;DHT22;23195;47.744;7.358;2022-12-29T09:04:56;12.50;99.90
37310;DHT22;23195;47.744;7.358;2022-12-29T09:07:35;12.50;99.90
37310;DHT22;23195;47.744;7.358;2022-12-29T09:10:17;12.40;99.90
37310;DHT22;23195;47.744;7.358;2022-12-29T09:12:56;12.50;99.90
37310;DHT22;23195;47.744;7.358;2022-12-29T09:15:24;12.50;99.90
37310;DHT22;23195;47.744;7.358;2022-12-29T09:18:00;12.40;99.90
37310;DHT22;23195;47.744;7.358;2022-12-29T09:20:29;12.50;99.90
37310;DHT22;23195;47.744;7.358;2022-12-29T09:22:57;12.50;99.90
37310;DHT22;23195;47.744;7.358;2022-12-29T09:25:33;12.50;99.90
37310;DHT22;23195;47.744;7.358;2022-12-29T09:28:01;12.50;99.90
37310;DHT22;23195;47.744;7.358;2022-12-29T09:30:39;12.60;99.90
37310;DHT22;23195;47.744;7.358;2022-12-29T09:33:08;12.60;99.90
37310;DHT22;23195;47.744;7.358;2022-12-29T09:35:58;12.60;99.90
37310;DHT22;23195;47.744;7.358;2022-12-29T09:38:31;12.60;99.90
37310;DHT22;23195;47.744;7.358;2022-12-29T09:41:52;12.50;99.90
37310;DHT22;23195;47.744;7.358;2022-12-29T09:47:34;12.80;99.90
37310;DHT22;23195;47.744;7.358;2022-12-29T09:50:20;13.00;99.90
37310;DHT22;23195;47.744;7.358;2022-12-29T09:55:48;13.00;99.90
37310;DHT22;23195;47.744;7.358;2022-12-29T09:59:07;13.00;99.90
37310;DHT22;23195;47.744;7.358;2022-12-29T10:01:31;12.90;99.90
37310;DHT22;23195;47.744;7.358;2022-12-29T10:04:07;12.80;99.90
37310;DHT22;23195;47.744;7.358;2022-12-29T10:07:13;12.80;99.90
37310;DHT22;23195;47.744;7.358;2022-12-29T10:16:20;12.80;99.90
37310;DHT22;23195;47.744;7.358;2022-12-29T10:22:04;12.80;99.90
37310;DHT22;23195;47.744;7.358;2022-12-29T10:24:37;12.20;99.90
37310;DHT22;23195;47.744;7.358;2022-12-29T10:27:12;12.90;99.90
37310;DHT22;23195;47.744;7.358;2022-12-29T10:29:59;12.80;99.90
37310;DHT22;23195;47.744;7.358;2022-12-29T10:32:36;12.90;99.90
37310;DHT22;23195;47.744;7.358;2022-12-29T10:35:32;12.90;99.90
37310;DHT22;23195;47.744;7.358;2022-12-29T10:38:44;12.80;99.90
37310;DHT22;23195;47.744;7.358;2022-12-29T10:44:15;12.90;99.90
37310;DHT22;23195;47.744;7.358;2022-12-29T10:46:57;13.00;99.90
37310;DHT22;23195;47.744;7.358;2022-12-29T10:49:40;12.50;99.90
37310;DHT22;23195;47.744;7.358;2022-12-29T10:52:21;13.20;99.90
37310;DHT22;23195;47.744;7.358;2022-12-29T10:58:01;13.20;99.90
37310;DHT22;23195;47.744;7.358;2022-12-29T11:00:31;13.30;99.90
37310;DHT22;23195;47.744;7.358;2022-12-29T11:05:59;13.50;99.90
37310;DHT22;23195;47.744;7.358;2022-12-29T11:08:45;13.60;99.90
37310;DHT22;23195;47.744;7.358;2022-12-29T11:11:27;13.60;99.90
37310;DHT22;23195;47.744;7.358;2022-12-29T11:14:31;13.80;99.90
37310;DHT22;23195;47.744;7.358;2022-12-29T11:17:02;13.80;99.90
37310;DHT22;23195;47.744;7.358;2022-12-29T11:19:31;13.70;99.90
37310;DHT22;23195;47.744;7.358;2022-12-29T11:24:51;13.70;99.90
37310;DHT22;23195;47.744;7.358;2022-12-29T11:27:30;13.60;99.90
37310;DHT22;23195;47.744;7.358;2022-12-29T11:29:58;13.60;99.90
37310;DHT22;23195;47.744;7.358;2022-12-29T11:32:35;13.70;99.90
37310;DHT22;23195;47.744;7.358;2022-12-29T11:35:39;13.70;99.90
37310;DHT22;23195;47.744;7.358;2022-12-29T11:38:23;13.60;99.90
37310;DHT22;23195;47.744;7.358;2022-12-29T11:40:52;13.60;99.90
37310;DHT22;23195;47.744;7.358;2022-12-29T11:43:33;13.50;99.90
37310;DHT22;23195;47.744;7.358;2022-12-29T11:46:03;13.40;99.90
37310;DHT22;23195;47.744;7.358;2022-12-29T11:48:45;13.30;99.90
37310;DHT22;23195;47.744;7.358;2022-12-29T11:51:23;13.30;99.90
37310;DHT22;23195;47.744;7.358;2022-12-29T11:54:04;13.30;99.90
37310;DHT22;23195;47.744;7.358;2022-12-29T11:56:46;13.30;99.90
37310;DHT22;23195;47.744;7.358;2022-12-29T12:02:39;13.70;99.90
37310;DHT22;23195;47.744;7.358;2022-12-29T12:05:15;14.00;99.90
37310;DHT22;23195;47.744;7.358;2022-12-29T12:07:49;14.00;99.90
37310;DHT22;23195;47.744;7.358;2022-12-29T12:10:34;13.90;99.90
37310;DHT22;23195;47.744;7.358;2022-12-29T12:13:38;13.90;99.90
37310;DHT22;23195;47.744;7.358;2022-12-29T12:16:19;13.90;99.90
37310;DHT22;23195;47.744;7.358;2022-12-29T12:22:16;13.90;99.90
37310;DHT22;23195;47.744;7.358;2022-12-29T12:25:02;13.90;99.90
37310;DHT22;23195;47.744;7.358;2022-12-29T12:28:00;13.80;99.90
37310;DHT22;23195;47.744;7.358;2022-12-29T12:30:37;13.90;99.90
37310;DHT22;23195;47.744;7.358;2022-12-29T12:33:48;14.00;99.90
37310;DHT22;23195;47.744;7.358;2022-12-29T12:45:51;13.90;99.90
37310;DHT22;23195;47.744;7.358;2022-12-29T12:51:33;13.80;99.90
37310;DHT22;23195;47.744;7.358;2022-12-29T12:54:38;13.90;99.90
37310;DHT22;23195;47.744;7.358;2022-12-29T13:07:11;13.50;99.90
37310;DHT22;23195;47.744;7.358;2022-12-29T13:10:01;13.40;99.90
37310;DHT22;23195;47.744;7.358;2022-12-29T13:27:04;13.00;99.90
37310;DHT22;23195;47.744;7.358;2022-12-29T13:29:43;12.90;99.90
37310;DHT22;23195;47.744;7.358;2022-12-29T13:35:42;12.90;99.90
37310;DHT22;23195;47.744;7.358;2022-12-29T13:38:32;13.00;99.90
37310;DHT22;23195;47.744;7.358;2022-12-29T13:41:13;13.00;99.90
37310;DHT22;23195;47.744;7.358;2022-12-29T13:43:43;13.00;99.90
37310;DHT22;23195;47.744;7.358;2022-12-29T13:46:56;12.90;99.90
37310;DHT22;23195;47.744;7.358;2022-12-29T13:49:36;12.80;99.90
37310;DHT22;23195;47.744;7.358;2022-12-29T13:52:21;12.80;99.90
37310;DHT22;23195;47.744;7.358;2022-12-29T13:58:20;12.80;99.90
37310;DHT22;23195;47.744;7.358;2022-12-29T14:01:14;12.70;99.90
37310;DHT22;23195;47.744;7.358;2022-12-29T14:03:56;12.80;99.90
37310;DHT22;23195;47.744;7.358;2022-12-29T14:06:34;12.80;99.90
37310;DHT22;23195;47.744;7.358;2022-12-29T14:19:09;12.90;99.90
37310;DHT22;23195;47.744;7.358;2022-12-29T14:21:32;12.80;99.90
37310;DHT22;23195;47.744;7.358;2022-12-29T14:24:46;12.70;99.90
37310;DHT22;23195;47.744;7.358;2022-12-29T14:30:01;12.80;99.90
37310;DHT22;23195;47.744;7.358;2022-12-29T14:32:37;12.80;99.90
37310;DHT22;23195;47.744;7.358;2022-12-29T14:38:44;12.70;99.90
37310;DHT22;23195;47.744;7.358;2022-12-29T14:41:30;12.70;99.90
37310;DHT22;23195;47.744;7.358;2022-12-29T14:49:29;12.70;99.90
37310;DHT22;23195;47.744;7.358;2022-12-29T14:52:17;12.60;99.90
37310;DHT22;23195;47.744;7.358;2022-12-29T14:54:56;12.70;99.90
37310;DHT22;23195;47.744;7.358;2022-12-29T14:57:35;12.60;99.90
37310;DHT22;23195;47.744;7.358;2022-12-29T15:03:12;12.50;99.90
37310;DHT22;23195;47.744;7.358;2022-12-29T15:06:18;12.60;99.90
37310;DHT22;23195;47.744;7.358;2022-12-29T15:09:04;12.50;99.90
37310;DHT22;23195;47.744;7.358;2022-12-29T15:11:59;12.40;99.90
37310;DHT22;23195;47.744;7.358;2022-12-29T15:15:10;12.40;99.90
37310;DHT22;23195;47.744;7.358;2022-12-29T15:24:35;12.20;99.90
37310;DHT22;23195;47.744;7.358;2022-12-29T15:27:24;12.20;99.90
37310;DHT22;23195;47.744;7.358;2022-12-29T15:30:03;12.20;99.90
37310;DHT22;23195;47.744;7.358;2022-12-29T15:32:48;12.00;99.90
37310;DHT22;23195;47.744;7.358;2022-12-29T15:35:37;11.90;99.90
37310;DHT22;23195;47.744;7.358;2022-12-29T15:38:22;11.90;99.90
37310;DHT22;23195;47.744;7.358;2022-12-29T15:41:00;11.80;99.90
37310;DHT22;23195;47.744;7.358;2022-12-29T15:43:49;11.90;99.90
37310;DHT22;23195;47.744;7.358;2022-12-29T15:46:25;11.90;99.90
37310;DHT22;23195;47.744;7.358;2022-12-29T15:49:14;11.80;99.90
37310;DHT22;23195;47.744;7.358;2022-12-29T15:51:41;11.80;99.90
37310;DHT22;23195;47.744;7.358;2022-12-29T15:54:37;11.90;99.90
37310;DHT22;23195;47.744;7.358;2022-12-29T15:57:26;11.90;99.90
37310;DHT22;23195;47.744;7.358;2022-12-29T16:02:58;12.00;99.90
37310;DHT22;23195;47.744;7.358;2022-12-29T16:05:38;11.90;99.90
37310;DHT22;23195;47.744;7.358;2022-12-29T16:08:31;11.90;99.90
37310;DHT22;23195;47.744;7.358;2022-12-29T16:12:28;11.90;99.90
37310;DHT22;23195;47.744;7.358;2022-12-29T16:35:54;10.90;99.90
37310;DHT22;23195;47.744;7.358;2022-12-29T16:38:30;10.80;99.90
37310;DHT22;23195;47.744;7.358;2022-12-29T16:41:29;10.80;99.90
37310;DHT22;23195;47.744;7.358;2022-12-29T16:44:34;10.70;99.90
37310;DHT22;23195;47.744;7.358;2022-12-29T16:50:11;10.80;99.90
37310;DHT22;23195;47.744;7.358;2022-12-29T16:53:00;10.70;99.90
37310;DHT22;23195;47.744;7.358;2022-12-29T16:55:54;10.70;99.90
37310;DHT22;23195;47.744;7.358;2022-12-29T16:59:16;10.60;99.90
37310;DHT22;23195;47.744;7.358;2022-12-29T17:02:01;10.50;99.90
37310;DHT22;23195;47.744;7.358;2022-12-29T17:04:46;10.50;99.90
37310;DHT22;23195;47.744;7.358;2022-12-29T17:13:55;10.40;99.90
37310;DHT22;23195;47.744;7.358;2022-12-29T17:19:39;9.80;99.90
37310;DHT22;23195;47.744;7.358;2022-12-29T17:22:21;10.60;99.90
37310;DHT22;23195;47.744;7.358;2022-12-29T17:24:59;10.70;99.90
37310;DHT22;23195;47.744;7.358;2022-12-29T17:27:41;10.70;99.90
37310;DHT22;23195;47.744;7.358;2022-12-29T17:30:32;10.70;99.90
37310;DHT22;23195;47.744;7.358;2022-12-29T17:33:38;10.70;99.90
37310;DHT22;23195;47.744;7.358;2022-12-29T17:37:01;10.70;99.90
37310;DHT22;23195;47.744;7.358;2022-12-29T17:39:34;10.70;99.90
37310;DHT22;23195;47.744;7.358;2022-12-29T17:42:27;10.70;99.90
37310;DHT22;23195;47.744;7.358;2022-12-29T17:45:04;10.70;99.90
37310;DHT22;23195;47.744;7.358;2022-12-29T17:47:43;10.70;99.90
37310;DHT22;23195;47.744;7.358;2022-12-29T17:50:32;10.80;99.90
37310;DHT22;23195;47.744;7.358;2022-12-29T17:53:22;10.80;99.90
37310;DHT22;23195;47.744;7.358;2022-12-29T17:59:15;10.80;99.90
37310;DHT22;23195;47.744;7.358;2022-12-29T18:05:33;10.90;99.90
37310;DHT22;23195;47.744;7.358;2022-12-29T18:08:36;10.90;99.90
37310;DHT22;23195;47.744;7.358;2022-12-29T18:11:54;10.90;99.90
37310;DHT22;23195;47.744;7.358;2022-12-29T18:14:56;10.00;99.90
37310;DHT22;23195;47.744;7.358;2022-12-29T18:25:44;10.80;99.90
37310;DHT22;23195;47.744;7.358;2022-12-29T18:42:14;11.40;99.90
37310;DHT22;23195;47.744;7.358;2022-12-29T18:49:02;10.40;99.90
37310;DHT22;23195;47.744;7.358;2022-12-29T19:03:32;10.80;99.90
37310;DHT22;23195;47.744;7.358;2022-12-29T19:16:57;10.60;99.90
37310;DHT22;23195;47.744;7.358;2022-12-29T19:19:47;10.70;99.90
37310;DHT22;23195;47.744;7.358;2022-12-29T19:22:26;10.60;99.90
37310;DHT22;23195;47.744;7.358;2022-12-29T19:25:08;10.50;99.90
37310;DHT22;23195;47.744;7.358;2022-12-29T19:27:49;10.50;99.90
37310;DHT22;23195;47.744;7.358;2022-12-29T19:30:29;10.40;99.90
37310;DHT22;23195;47.744;7.358;2022-12-29T19:36:02;9.40;99.90
37310;DHT22;23195;47.744;7.358;2022-12-29T19:38:50;10.40;99.90
37310;DHT22;23195;47.744;7.358;2022-12-29T19:41:57;10.40;99.90
37310;DHT22;23195;47.744;7.358;2022-12-29T19:44:54;10.30;99.90
37310;DHT22;23195;47.744;7.358;2022-12-29T19:47:39;10.30;99.90
37310;DHT22;23195;47.744;7.358;2022-12-29T19:53:18;10.30;99.90
37310;DHT22;23195;47.744;7.358;2022-12-29T19:56:15;10.30;99.90
37310;DHT22;23195;47.744;7.358;2022-12-29T19:58:53;10.30;99.90
37310;DHT22;23195;47.744;7.358;2022-12-29T20:01:27;10.20;99.90
37310;DHT22;23195;47.744;7.358;2022-12-29T20:04:18;10.20;99.90
37310;DHT22;23195;47.744;7.358;2022-12-29T20:07:03;10.20;99.90
37310;DHT22;23195;47.744;7.358;2022-12-29T20:10:03;10.40;99.90
37310;DHT22;23195;47.744;7.358;2022-12-29T20:12:56;10.10;99.90
37310;DHT22;23195;47.744;7.358;2022-12-29T20:15:48;10.10;99.90
37310;DHT22;23195;47.744;7.358;2022-12-29T20:18:34;10.00;99.90
37310;DHT22;23195;47.744;7.358;2022-12-29T20:21:30;10.00;99.90
37310;DHT22;23195;47.744;7.358;2022-12-29T20:24:04;10.00;99.90
37310;DHT22;23195;47.744;7.358;2022-12-29T20:26:47;10.00;99.90
37310;DHT22;23195;47.744;7.358;2022-12-29T20:29:43;10.00;99.90
37310;DHT22;23195;47.744;7.358;2022-12-29T20:35:44;9.90;99.90
37310;DHT22;23195;47.744;7.358;2022-12-29T20:38:21;10.00;99.90
37310;DHT22;23195;47.744;7.358;2022-12-29T20:44:44;10.20;99.90
37310;DHT22;23195;47.744;7.358;2022-12-29T20:50:22;10.00;99.90
37310;DHT22;23195;47.744;7.358;2022-12-29T20:53:02;9.90;99.90
37310;DHT22;23195;47.744;7.358;2022-12-29T20:55:38;9.90;99.90
37310;DHT22;23195;47.744;7.358;2022-12-29T20:58:33;9.80;99.90
37310;DHT22;23195;47.744;7.358;2022-12-29T21:04:08;9.80;99.90
37310;DHT22;23195;47.744;7.358;2022-12-29T21:06:53;9.80;99.90
37310;DHT22;23195;47.744;7.358;2022-12-29T21:12:37;9.70;99.90
37310;DHT22;23195;47.744;7.358;2022-12-29T21:15:23;11.20;99.90
37310;DHT22;23195;47.744;7.358;2022-12-29T21:18:14;9.20;99.90
37310;DHT22;23195;47.744;7.358;2022-12-29T21:20:57;8.90;99.90
37310;DHT22;23195;47.744;7.358;2022-12-29T21:23:43;11.40;99.90
37310;DHT22;23195;47.744;7.358;2022-12-29T21:26:22;9.40;99.90
37310;DHT22;23195;47.744;7.358;2022-12-29T21:35:57;8.60;99.90
37310;DHT22;23195;47.744;7.358;2022-12-29T21:38:47;9.80;99.90
37310;DHT22;23195;47.744;7.358;2022-12-29T21:41:44;9.20;99.90
37310;DHT22;23195;47.744;7.358;2022-12-29T21:47:40;9.10;99.90
37310;DHT22;23195;47.744;7.358;2022-12-29T21:50:40;9.10;99.90
37310;DHT22;23195;47.744;7.358;2022-12-29T21:53:31;9.00;99.90
37310;DHT22;23195;47.744;7.358;2022-12-29T21:56:30;9.00;99.90
37310;DHT22;23195;47.744;7.358;2022-12-29T22:02:09;9.00;99.90
37310;DHT22;23195;47.744;7.358;2022-12-29T22:05:02;8.90;99.90
37310;DHT22;23195;47.744;7.358;2022-12-29T22:07:46;9.00;99.90
37310;DHT22;23195;47.744;7.358;2022-12-29T22:10:40;8.90;99.90
37310;DHT22;23195;47.744;7.358;2022-12-29T22:13:45;8.90;99.90
37310;DHT22;23195;47.744;7.358;2022-12-29T22:16:33;8.50;99.90
37310;DHT22;23195;47.744;7.358;2022-12-29T22:19:04;8.90;99.90
37310;DHT22;23195;47.744;7.358;2022-12-29T22:22:00;8.90;99.90
